Hlavní strana
METAR-TAF:

METAR-TAF

Letiště :

Győr, Maďarsko

zeměpisná šířka: 47-37-28N, zeměpisná délka: 017-48-49E, výška: 129 m

Aktuální stav počasí

Zpráva byla vytvořena před 34 minutami, v 09:45 UTC
vítr z různých směrů 3 kt
Teplota 29°C
Vlhkost vzduchu 45%
Tlak 1018 hPa
Viditelnost 10 km a více
Polojasno ve výšce 5600 ft
Skoro jasno ve výšce 6000 ft, Vertikální cumulus.

METAR: LHPR 180945Z VRB03KT 9999 SCT056 FEW060TCU 29/16 Q1018 RMK BLU

Čas: 12:19 (10:19 UTC)

Předpověď počasí

Zpráva byla vytvořena před 2 hodinami a 4 minutami, v 08:15 UTC
Předpověď platná od 18 v 09 UTC do 18 v 18 UTC
vítr z různých směrů 3 kt
Viditelnost 10 km a více
Žádná oblačnost pod 1500 m, nevyskytují se cumulonimby.

TAF: LHPR 180815Z 1809/1818 VRB03KT CAVOK

Stav a předpovědi počasí z více než 4 000 letišť (zprávy METAR a TAF).

Červené a žluté tečky na mapě představují dostupné meteorologické stanice.

Když kurzor umístíte na tečku, zobrazí se název stanice.

Pak kliknutím zobrazíte stav a předpověď počasí.

Chcete-li změnit mapu, kliknutím na zelené tlačítko se znaménkem +mapu přiblížíte, kliknutím na zelené tlačítko se znaménkem – mapu oddálíte a kliknutím na zelené šipky přejdete na sousední mapy.


METAR-TAF: